createdAt,value
2023-08-03T00:00:00.498Z,1.00
2023-08-03T00:01:00.466Z,1.30
2023-08-03T00:02:00.430Z,1.10
2023-08-03T00:03:00.468Z,1.20
2023-08-03T00:04:00.298Z,1.20
2023-08-03T00:05:00.141Z,1.20
2023-08-03T00:06:00.065Z,1.20
2023-08-03T00:07:00.043Z,1.30
2023-08-03T00:07:59.985Z,1.10
2023-08-03T00:08:59.962Z,1.20
2023-08-03T00:09:59.917Z,1.20
2023-08-03T00:10:59.787Z,1.20
2023-08-03T00:11:59.767Z,1.20
2023-08-03T00:12:59.646Z,1.10
2023-08-03T00:13:59.592Z,1.10
2023-08-03T00:14:59.517Z,1.30
2023-08-03T00:15:59.529Z,1.20
2023-08-03T00:16:59.384Z,1.30
2023-08-03T00:17:59.381Z,1.00
2023-08-03T00:18:59.260Z,1.40
2023-08-03T00:19:59.203Z,1.50
2023-08-03T00:20:59.173Z,1.40
2023-08-03T00:21:59.104Z,1.40
2023-08-03T00:22:59.085Z,1.40
2023-08-03T00:23:59.023Z,1.30
2023-08-03T00:24:58.874Z,1.20
2023-08-03T00:25:58.816Z,1.20
2023-08-03T00:26:58.770Z,1.30
2023-08-03T00:27:58.710Z,1.70
2023-08-03T00:28:58.656Z,1.30
2023-08-03T00:29:58.583Z,1.30
2023-08-03T00:30:58.551Z,1.50
2023-08-03T00:31:58.494Z,1.30
2023-08-03T00:32:58.435Z,1.40
2023-08-03T00:33:58.332Z,1.30
2023-08-03T00:34:58.245Z,1.40
2023-08-03T00:35:58.197Z,1.60
2023-08-03T00:36:58.168Z,1.50
2023-08-03T00:37:58.054Z,1.40
2023-08-03T00:38:58.021Z,1.10
2023-08-03T00:39:57.944Z,1.40
2023-08-03T00:40:57.875Z,1.90
2023-08-03T00:41:57.903Z,1.40
2023-08-03T00:42:57.775Z,1.40
2023-08-03T00:43:57.692Z,1.50
2023-08-03T00:44:57.633Z,1.70
2023-08-03T00:45:57.618Z,1.20
2023-08-03T00:46:57.536Z,1.50
2023-08-03T00:47:57.518Z,1.30
2023-08-03T00:48:57.443Z,1.20
2023-08-03T00:49:57.317Z,1.30
2023-08-03T00:50:57.245Z,1.30
2023-08-03T00:51:57.192Z,1.40
2023-08-03T00:52:57.164Z,1.40
2023-08-03T00:53:57.100Z,1.50
2023-08-03T00:54:57.007Z,1.40
2023-08-03T00:55:56.965Z,1.40
2023-08-03T00:56:56.889Z,1.50
2023-08-03T00:57:56.851Z,1.40
2023-08-03T00:58:56.754Z,1.40
2023-08-03T00:59:56.715Z,1.60
2023-08-03T01:00:56.690Z,1.50
2023-08-03T01:01:56.587Z,1.40
2023-08-03T01:02:56.562Z,1.50
2023-08-03T01:03:56.450Z,1.80
2023-08-03T01:04:56.408Z,1.40
2023-08-03T01:05:56.356Z,1.40
2023-08-03T01:06:56.275Z,1.40
2023-08-03T01:07:56.221Z,1.40
2023-08-03T01:08:56.203Z,1.70
2023-08-03T01:09:56.072Z,1.30
2023-08-03T01:10:56.099Z,1.30
2023-08-03T01:11:55.965Z,1.30
2023-08-03T01:12:55.912Z,1.40
2023-08-03T01:13:55.826Z,1.40
2023-08-03T01:14:55.815Z,1.60
2023-08-03T01:15:55.688Z,1.50
2023-08-03T01:16:55.767Z,1.40
2023-08-03T01:17:55.608Z,1.50
2023-08-03T01:18:55.510Z,1.40
2023-08-03T01:19:55.488Z,1.30
2023-08-03T01:20:55.394Z,1.60
2023-08-03T01:21:55.351Z,1.30
2023-08-03T01:22:55.296Z,1.50
2023-08-03T01:23:55.285Z,1.60
2023-08-03T01:24:55.185Z,1.40
2023-08-03T01:25:55.112Z,1.60
2023-08-03T01:26:55.000Z,1.70
2023-08-03T01:27:54.958Z,1.70
2023-08-03T01:28:54.881Z,1.50
2023-08-03T01:29:54.836Z,1.50
2023-08-03T01:30:54.819Z,1.50
2023-08-03T01:31:54.717Z,1.70
2023-08-03T01:32:54.728Z,1.50
2023-08-03T01:33:54.592Z,1.60
2023-08-03T01:34:54.517Z,1.80
2023-08-03T01:35:54.446Z,1.60
2023-08-03T01:36:54.407Z,1.70
2023-08-03T01:37:54.358Z,1.90
2023-08-03T01:38:54.274Z,1.50
2023-08-03T01:39:54.231Z,1.60
2023-08-03T01:40:54.195Z,1.60
2023-08-03T01:41:54.084Z,1.50
2023-08-03T01:42:54.004Z,1.30
2023-08-03T01:43:53.994Z,2.00
2023-08-03T01:44:53.960Z,1.70
2023-08-03T01:45:53.891Z,1.80
2023-08-03T01:46:53.774Z,1.50
2023-08-03T01:47:53.788Z,1.40
2023-08-03T01:48:53.653Z,1.70
2023-08-03T01:49:53.592Z,1.40
2023-08-03T01:50:53.514Z,1.50
2023-08-03T01:51:53.567Z,1.50
2023-08-03T01:52:53.430Z,1.50
2023-08-03T01:53:53.335Z,1.50
2023-08-03T01:54:53.277Z,1.70
2023-08-03T01:55:53.306Z,1.40
2023-08-03T01:56:53.134Z,1.60
2023-08-03T01:57:53.100Z,1.50
2023-08-03T01:58:53.041Z,1.80
2023-08-03T01:59:52.956Z,1.50
2023-08-03T02:00:52.911Z,1.60
2023-08-03T02:01:52.830Z,2.00
2023-08-03T02:02:52.839Z,1.70
2023-08-03T02:03:52.812Z,1.50
2023-08-03T02:04:52.667Z,1.60
2023-08-03T02:05:52.582Z,1.50
2023-08-03T02:06:52.634Z,1.40
2023-08-03T02:07:52.504Z,1.50
2023-08-03T02:08:52.380Z,1.50
2023-08-03T02:09:54.858Z,2.00
2023-08-03T02:10:52.264Z,2.00
2023-08-03T02:11:52.208Z,1.50
2023-08-03T02:12:52.190Z,2.10
2023-08-03T02:13:52.074Z,1.80
2023-08-03T02:14:52.022Z,2.00
2023-08-03T02:15:51.956Z,1.90
2023-08-03T02:16:51.919Z,1.70
2023-08-03T02:17:51.847Z,1.80
2023-08-03T02:18:51.909Z,1.60
2023-08-03T02:19:51.730Z,1.90
2023-08-03T02:20:51.718Z,1.80
2023-08-03T02:21:51.575Z,1.90
2023-08-03T02:22:51.519Z,1.80
2023-08-03T02:23:51.466Z,1.80
2023-08-03T02:24:51.474Z,1.80
2023-08-03T02:25:51.333Z,1.80
2023-08-03T02:26:51.287Z,1.70
2023-08-03T02:27:51.266Z,1.80
2023-08-03T02:28:51.151Z,1.70
2023-08-03T02:29:51.097Z,1.80
2023-08-03T02:30:51.032Z,1.50
2023-08-03T02:31:50.961Z,1.60
2023-08-03T02:32:50.934Z,1.60
2023-08-03T02:33:50.894Z,1.80
2023-08-03T02:34:50.783Z,1.50
2023-08-03T02:35:50.720Z,1.50
2023-08-03T02:36:50.656Z,1.50
2023-08-03T02:37:50.661Z,1.60
2023-08-03T02:38:50.551Z,1.40
2023-08-03T02:39:50.460Z,1.40
2023-08-03T02:40:50.454Z,1.70
2023-08-03T02:41:50.355Z,1.60
2023-08-03T02:42:50.286Z,1.80
2023-08-03T02:43:50.230Z,1.70
2023-08-03T02:44:50.150Z,1.40
2023-08-03T02:45:50.142Z,1.40
2023-08-03T02:46:50.039Z,1.30
2023-08-03T02:47:49.992Z,1.20
2023-08-03T02:48:49.923Z,1.30
2023-08-03T02:49:49.842Z,1.20
2023-08-03T02:50:49.817Z,1.30
2023-08-03T02:51:49.711Z,1.30
2023-08-03T02:52:49.662Z,1.40
2023-08-03T02:53:49.639Z,1.40
2023-08-03T02:54:49.548Z,1.20
2023-08-03T02:55:49.473Z,1.40
2023-08-03T02:56:49.397Z,1.30
2023-08-03T02:57:49.374Z,1.30
2023-08-03T02:58:49.275Z,1.50
2023-08-03T02:59:49.232Z,1.50
2023-08-03T03:00:49.166Z,1.30
2023-08-03T03:01:49.215Z,1.40
2023-08-03T03:02:49.096Z,1.40
2023-08-03T03:03:49.027Z,1.10
2023-08-03T03:04:48.936Z,1.40
2023-08-03T03:05:48.857Z,1.30
2023-08-03T03:06:48.811Z,1.40
2023-08-03T03:07:48.732Z,1.40
2023-08-03T03:08:48.646Z,1.50
2023-08-03T03:09:48.584Z,1.50
2023-08-03T03:10:48.540Z,1.30
2023-08-03T03:11:48.453Z,1.60
2023-08-03T03:12:48.393Z,1.80
2023-08-03T03:13:48.340Z,1.70
2023-08-03T03:14:48.291Z,1.70
2023-08-03T03:15:48.278Z,1.80
2023-08-03T03:16:48.158Z,1.50
2023-08-03T03:17:48.149Z,1.50
2023-08-03T03:18:48.024Z,1.50
2023-08-03T03:19:47.969Z,1.50
2023-08-03T03:20:47.916Z,1.60
2023-08-03T03:21:47.840Z,1.50
2023-08-03T03:22:47.817Z,1.70
2023-08-03T03:23:47.722Z,1.60
2023-08-03T03:24:47.737Z,1.60
2023-08-03T03:25:47.590Z,1.80
2023-08-03T03:26:47.542Z,1.60
2023-08-03T03:27:47.495Z,1.40
2023-08-03T03:28:47.400Z,1.50
2023-08-03T03:29:47.345Z,1.70
2023-08-03T03:30:47.323Z,1.70
2023-08-03T03:31:47.477Z,1.70
2023-08-03T03:32:47.205Z,1.50
2023-08-03T03:33:47.127Z,1.70
2023-08-03T03:34:47.050Z,1.50
2023-08-03T03:35:46.967Z,1.60
2023-08-03T03:36:47.023Z,1.60
2023-08-03T03:37:46.839Z,1.60
2023-08-03T03:38:46.781Z,1.50
2023-08-03T03:39:46.786Z,1.70
2023-08-03T03:40:46.680Z,1.60
2023-08-03T03:41:46.833Z,1.80
2023-08-03T03:42:46.559Z,1.50
2023-08-03T03:43:46.517Z,1.70
2023-08-03T03:44:46.420Z,1.50
2023-08-03T03:45:46.395Z,1.50
2023-08-03T03:46:46.279Z,1.60
2023-08-03T03:47:46.326Z,1.40
2023-08-03T03:48:46.184Z,1.80
2023-08-03T03:49:46.138Z,1.50
2023-08-03T03:50:46.091Z,1.80
2023-08-03T03:51:46.226Z,1.50
2023-08-03T03:52:45.898Z,1.60
2023-08-03T03:53:45.893Z,1.60
2023-08-03T03:54:45.785Z,1.60
2023-08-03T03:55:45.715Z,1.70
2023-08-03T03:56:45.660Z,1.60
2023-08-03T03:57:45.582Z,1.90
2023-08-03T03:58:45.553Z,1.70
2023-08-03T03:59:45.488Z,1.60
2023-08-03T04:00:45.486Z,1.40
2023-08-03T04:01:45.525Z,1.80
2023-08-03T04:02:45.306Z,1.50
2023-08-03T04:03:45.313Z,1.50
2023-08-03T04:04:45.184Z,1.60
2023-08-03T04:05:45.136Z,1.70
2023-08-03T04:06:45.102Z,1.80
2023-08-03T04:07:45.052Z,1.90
2023-08-03T04:08:44.934Z,1.50
2023-08-03T04:09:44.855Z,1.60
2023-08-03T04:10:44.792Z,1.60
2023-08-03T04:11:44.951Z,1.50
2023-08-03T04:12:44.689Z,1.40
2023-08-03T04:13:44.604Z,1.40
2023-08-03T04:14:44.519Z,1.50
2023-08-03T04:15:44.516Z,1.80
2023-08-03T04:16:44.442Z,1.80
2023-08-03T04:17:44.470Z,1.80
2023-08-03T04:18:44.302Z,1.50
2023-08-03T04:19:44.228Z,1.60
2023-08-03T04:20:44.358Z,1.80
2023-08-03T04:21:44.399Z,1.50
2023-08-03T04:22:45.959Z,1.50
2023-08-03T04:23:44.011Z,1.40
2023-08-03T04:24:43.942Z,1.70
2023-08-03T04:25:43.858Z,1.70
2023-08-03T04:26:43.802Z,1.70
2023-08-03T04:27:43.772Z,1.50
2023-08-03T04:28:43.749Z,1.70
2023-08-03T04:29:43.598Z,1.50
2023-08-03T04:30:43.626Z,1.80
2023-08-03T04:31:43.941Z,1.70
2023-08-03T04:32:43.457Z,1.30
2023-08-03T04:33:43.382Z,1.50
2023-08-03T04:34:43.293Z,1.40
2023-08-03T04:35:43.325Z,1.50
2023-08-03T04:36:43.192Z,2.10
2023-08-03T04:37:43.132Z,1.70
2023-08-03T04:38:43.074Z,1.70
2023-08-03T04:39:43.011Z,1.60
2023-08-03T04:40:42.911Z,1.90
2023-08-03T04:41:43.171Z,1.90
2023-08-03T04:42:42.825Z,1.80
2023-08-03T04:43:43.476Z,1.90
2023-08-03T04:44:42.675Z,1.80
2023-08-03T04:45:42.677Z,2.00
2023-08-03T04:46:42.579Z,1.90
2023-08-03T04:47:42.517Z,1.60
2023-08-03T04:48:42.433Z,1.60
2023-08-03T04:49:42.365Z,1.80
2023-08-03T04:50:42.319Z,1.80
2023-08-03T04:51:42.560Z,1.60
2023-08-03T04:52:42.196Z,1.70
2023-08-03T04:53:42.135Z,1.50
2023-08-03T04:54:42.065Z,1.60
2023-08-03T04:55:42.048Z,1.50
2023-08-03T04:56:41.943Z,1.70
2023-08-03T04:57:41.892Z,1.80
2023-08-03T04:58:41.874Z,1.60
2023-08-03T04:59:41.740Z,1.70
2023-08-03T05:00:41.757Z,1.90
2023-08-03T05:01:41.799Z,1.70
2023-08-03T05:02:41.694Z,1.70
2023-08-03T05:03:41.527Z,1.70
2023-08-03T05:04:41.466Z,2.00
2023-08-03T05:05:41.426Z,1.80
2023-08-03T05:06:41.357Z,1.90
2023-08-03T05:07:41.364Z,1.80
2023-08-03T05:08:41.196Z,1.80
2023-08-03T05:09:41.110Z,1.40
2023-08-03T05:10:41.078Z,1.80
2023-08-03T05:11:40.987Z,1.80
2023-08-03T05:12:40.978Z,1.50
2023-08-03T05:13:40.890Z,1.80
2023-08-03T05:14:40.816Z,1.70
2023-08-03T05:15:40.772Z,1.80
2023-08-03T05:16:40.784Z,1.60
2023-08-03T05:17:40.696Z,1.70
2023-08-03T05:18:40.600Z,1.80
2023-08-03T05:19:40.507Z,1.70
2023-08-03T05:20:40.455Z,1.50
2023-08-03T05:21:40.383Z,1.90
2023-08-03T05:22:40.320Z,1.30
2023-08-03T05:23:40.330Z,1.80
2023-08-03T05:24:40.208Z,1.80
2023-08-03T05:25:40.156Z,1.70
2023-08-03T05:26:40.085Z,1.50
2023-08-03T05:27:40.014Z,1.70
2023-08-03T05:28:39.971Z,1.70
2023-08-03T05:29:39.881Z,1.80
2023-08-03T05:30:39.902Z,1.70
2023-08-03T05:31:39.797Z,1.60
2023-08-03T05:32:39.735Z,1.60
2023-08-03T05:33:39.655Z,1.70
2023-08-03T05:34:39.586Z,1.90
2023-08-03T05:35:39.537Z,1.90
2023-08-03T05:36:39.493Z,2.30
2023-08-03T05:37:39.384Z,1.80
2023-08-03T05:38:39.345Z,1.70
2023-08-03T05:39:39.279Z,1.40
2023-08-03T05:40:39.217Z,1.60
2023-08-03T05:41:39.192Z,1.90
2023-08-03T05:42:39.149Z,1.80
2023-08-03T05:43:39.022Z,1.60
2023-08-03T05:44:38.969Z,1.50
2023-08-03T05:45:38.914Z,1.70
2023-08-03T05:46:38.895Z,1.50
2023-08-03T05:47:38.808Z,1.30
2023-08-03T05:48:38.715Z,1.70
2023-08-03T05:49:38.696Z,1.90
2023-08-03T05:50:38.629Z,1.70
2023-08-03T05:51:38.548Z,1.80
2023-08-03T05:52:38.481Z,2.70
2023-08-03T05:53:38.449Z,2.10
2023-08-03T05:54:38.383Z,1.80
2023-08-03T05:55:38.352Z,1.50
2023-08-03T05:56:38.265Z,1.80
2023-08-03T05:57:38.190Z,1.70
2023-08-03T05:58:38.133Z,1.50
2023-08-03T05:59:38.057Z,1.70
2023-08-03T06:00:38.054Z,1.50
2023-08-03T06:01:37.947Z,1.60
2023-08-03T06:02:37.913Z,1.80
2023-08-03T06:03:37.895Z,1.50
2023-08-03T06:04:37.769Z,1.60
2023-08-03T06:05:37.758Z,1.80
2023-08-03T06:06:37.719Z,1.70
2023-08-03T06:07:37.559Z,1.50
2023-08-03T06:08:37.522Z,1.40
2023-08-03T06:09:37.535Z,2.00
2023-08-03T06:10:37.431Z,1.80
2023-08-03T06:11:37.431Z,1.80
2023-08-03T06:12:37.276Z,1.60
2023-08-03T06:13:37.231Z,1.50
2023-08-03T06:14:37.162Z,1.70
2023-08-03T06:15:37.118Z,1.40
2023-08-03T06:16:37.099Z,2.00
2023-08-03T06:17:37.002Z,1.80
2023-08-03T06:18:36.943Z,1.60
2023-08-03T06:19:36.887Z,1.70
2023-08-03T06:20:36.860Z,1.40
2023-08-03T06:21:36.725Z,1.60
2023-08-03T06:22:36.703Z,1.80
2023-08-03T06:23:36.601Z,1.50
2023-08-03T06:24:36.569Z,1.80
2023-08-03T06:25:36.498Z,1.40
2023-08-03T06:26:36.448Z,1.60
2023-08-03T06:27:36.432Z,1.70
2023-08-03T06:28:36.334Z,1.60
2023-08-03T06:29:36.259Z,1.70
2023-08-03T06:30:36.233Z,1.40
2023-08-03T06:31:36.246Z,1.30
2023-08-03T06:32:36.196Z,1.40
2023-08-03T06:33:36.024Z,1.40
2023-08-03T06:34:36.000Z,1.50
2023-08-03T06:35:35.939Z,1.70
2023-08-03T06:36:35.870Z,1.50
2023-08-03T06:37:35.819Z,1.10
2023-08-03T06:38:35.819Z,1.10
2023-08-03T06:39:35.679Z,1.30
2023-08-03T06:40:35.618Z,1.10
2023-08-03T06:41:35.542Z,1.30
2023-08-03T06:42:35.538Z,1.40
2023-08-03T06:43:35.453Z,1.40
2023-08-03T06:44:37.710Z,1.30
2023-08-03T06:45:35.351Z,1.30
2023-08-03T06:46:35.292Z,1.50
2023-08-03T06:47:35.310Z,1.50
2023-08-03T06:48:35.150Z,1.40
2023-08-03T06:49:35.090Z,1.30
2023-08-03T06:50:36.389Z,1.60
2023-08-03T06:51:34.987Z,1.70
2023-08-03T06:52:34.908Z,1.40
2023-08-03T06:53:34.871Z,1.40
2023-08-03T06:54:34.795Z,1.30
2023-08-03T06:55:34.742Z,1.50
2023-08-03T06:56:34.751Z,1.30
2023-08-03T06:57:34.699Z,1.30
2023-08-03T06:58:34.599Z,1.50
2023-08-03T06:59:34.501Z,1.20
2023-08-03T07:00:34.455Z,1.40
2023-08-03T07:01:34.429Z,1.30
2023-08-03T07:02:34.583Z,1.30
2023-08-03T07:03:34.368Z,1.20
2023-08-03T07:04:34.217Z,1.30
2023-08-03T07:05:34.155Z,1.30
2023-08-03T07:06:34.133Z,1.40
2023-08-03T07:07:34.069Z,1.50
2023-08-03T07:08:34.035Z,1.20
2023-08-03T07:09:33.954Z,1.30
2023-08-03T07:10:33.855Z,1.50
2023-08-03T07:11:33.778Z,1.30
2023-08-03T07:12:33.749Z,1.50
2023-08-03T07:13:33.702Z,1.40
2023-08-03T07:14:33.630Z,1.40
2023-08-03T07:15:33.550Z,1.40
2023-08-03T07:16:33.536Z,1.50
2023-08-03T07:17:33.427Z,1.70
2023-08-03T07:18:33.389Z,1.50
2023-08-03T07:19:33.314Z,1.80
2023-08-03T07:20:33.258Z,1.60
2023-08-03T07:21:33.185Z,1.30
2023-08-03T07:22:33.155Z,1.40
2023-08-03T07:23:33.088Z,1.30
2023-08-03T07:24:33.003Z,1.50
2023-08-03T07:25:33.022Z,1.30
2023-08-03T07:26:32.938Z,1.40
2023-08-03T07:27:32.852Z,1.60
2023-08-03T07:28:32.792Z,1.50
2023-08-03T07:29:32.720Z,1.30
2023-08-03T07:30:33.244Z,1.30
2023-08-03T07:31:32.618Z,1.30
2023-08-03T07:32:32.617Z,1.40
2023-08-03T07:33:32.473Z,1.20
2023-08-03T07:34:32.422Z,1.20
2023-08-03T07:35:32.376Z,1.30
2023-08-03T07:36:32.346Z,1.20
2023-08-03T07:37:32.301Z,1.00
2023-08-03T07:38:32.217Z,1.00
2023-08-03T07:39:32.148Z,1.20
2023-08-03T07:40:32.122Z,1.40
2023-08-03T07:41:31.993Z,1.40
2023-08-03T07:42:31.950Z,1.50
2023-08-03T07:43:31.901Z,1.60
2023-08-03T07:46:31.780Z,1.40
2023-08-03T07:47:31.700Z,1.00
2023-08-03T07:48:31.570Z,1.10
2023-08-03T07:49:31.558Z,1.50
2023-08-03T07:50:31.476Z,1.60
2023-08-03T07:51:31.427Z,1.20
2023-08-03T07:52:31.347Z,1.10
2023-08-03T07:53:31.297Z,1.20
2023-08-03T07:54:31.235Z,1.10
2023-08-03T07:55:31.176Z,1.00
2023-08-03T07:56:31.130Z,1.10
2023-08-03T07:57:31.080Z,1.30
2023-08-03T07:58:31.001Z,1.40
2023-08-03T07:59:30.975Z,1.00
2023-08-03T08:00:30.937Z,1.10
2023-08-03T08:01:30.931Z,1.00
2023-08-03T08:02:30.809Z,1.10
2023-08-03T08:03:30.739Z,1.30
2023-08-03T08:04:30.631Z,1.20
2023-08-03T08:05:30.597Z,1.00
2023-08-03T08:06:30.517Z,1.10
2023-08-03T08:07:30.480Z,1.20
2023-08-03T08:08:30.406Z,1.50
2023-08-03T08:09:30.349Z,1.10
2023-08-03T08:10:30.323Z,1.10
2023-08-03T08:11:30.276Z,1.10
2023-08-03T08:12:30.169Z,0.90
2023-08-03T08:13:30.158Z,1.00
2023-08-03T08:14:30.083Z,1.00
2023-08-03T08:15:30.171Z,1.00
2023-08-03T08:16:29.989Z,0.80
2023-08-03T08:17:29.915Z,1.10
2023-08-03T08:18:30.676Z,1.10
2023-08-03T08:19:29.982Z,1.10
2023-08-03T08:20:29.728Z,0.80
2023-08-03T08:21:29.712Z,1.00
2023-08-03T08:22:29.658Z,0.90
2023-08-03T08:23:29.556Z,0.90
2023-08-03T08:24:29.553Z,0.90
2023-08-03T08:25:29.592Z,0.90
2023-08-03T08:26:29.505Z,0.80
2023-08-03T08:27:29.430Z,0.80
2023-08-03T08:28:31.723Z,1.00
2023-08-03T08:29:29.180Z,1.00
2023-08-03T08:30:29.173Z,1.00
2023-08-03T08:31:32.778Z,0.90
2023-08-03T08:32:29.143Z,0.80
2023-08-03T08:33:28.941Z,0.90
2023-08-03T08:34:32.141Z,1.10
2023-08-03T08:35:28.819Z,0.90
2023-08-03T08:36:28.826Z,0.90
2023-08-03T08:37:28.721Z,0.90
2023-08-03T08:38:28.648Z,1.10
2023-08-03T08:39:28.669Z,0.90
2023-08-03T08:40:28.543Z,0.90
2023-08-03T08:41:28.459Z,1.10
2023-08-03T08:42:28.446Z,0.90
2023-08-03T08:43:28.434Z,0.90
2023-08-03T08:44:28.309Z,0.80
2023-08-03T08:45:28.227Z,0.80
2023-08-03T08:46:28.349Z,1.00
2023-08-03T08:47:28.209Z,1.00
2023-08-03T08:50:30.247Z,1.00
2023-08-03T08:52:27.886Z,0.80
2023-08-03T08:53:27.847Z,0.80
2023-08-03T08:58:28.073Z,0.80
2023-08-03T09:00:27.405Z,0.90
2023-08-03T09:01:27.345Z,0.80
2023-08-03T09:02:27.254Z,0.90
2023-08-03T09:03:27.353Z,0.80
2023-08-03T09:06:27.013Z,0.90
2023-08-03T09:07:26.991Z,0.80
2023-08-03T09:08:26.870Z,0.80
2023-08-03T09:09:26.866Z,0.80
2023-08-03T09:10:26.765Z,1.00
2023-08-03T09:11:26.795Z,0.90
2023-08-03T09:12:26.715Z,0.90
2023-08-03T09:13:26.581Z,0.80
2023-08-03T09:14:26.659Z,1.00
2023-08-03T09:15:26.512Z,0.90
2023-08-03T09:16:26.417Z,0.90
2023-08-03T09:17:26.404Z,0.80
2023-08-03T09:18:26.305Z,0.90
2023-08-03T09:19:26.254Z,0.90
2023-08-03T09:23:26.009Z,0.90
2023-08-03T09:25:39.369Z,0.80
2023-08-03T09:27:58.875Z,0.90
2023-08-03T09:29:25.737Z,1.00
2023-08-03T09:30:36.887Z,1.00
2023-08-03T09:32:27.868Z,0.90
2023-08-03T09:35:25.285Z,0.90
2023-08-03T09:37:45.160Z,0.80
2023-08-03T09:38:25.233Z,0.80
2023-08-03T09:40:25.271Z,0.90
2023-08-03T09:41:24.941Z,0.90
2023-08-03T09:44:24.786Z,0.70
2023-08-03T09:46:24.741Z,0.80
2023-08-03T09:47:26.499Z,0.80
2023-08-03T09:48:24.590Z,0.90
2023-08-03T09:49:24.480Z,0.80
2023-08-03T09:50:24.476Z,0.80
2023-08-03T09:51:24.375Z,0.80
2023-08-03T09:52:49.413Z,1.10
2023-08-03T09:53:25.262Z,1.10
2023-08-03T09:54:24.263Z,1.00
2023-08-03T09:55:24.165Z,1.50
2023-08-03T09:56:24.127Z,1.10
2023-08-03T09:57:24.021Z,1.00
2023-08-03T09:58:23.950Z,1.00
2023-08-03T09:59:23.913Z,0.90
2023-08-03T10:00:23.858Z,1.00
2023-08-03T10:01:23.787Z,0.90
2023-08-03T10:02:24.244Z,0.90
2023-08-03T10:03:23.706Z,0.80
2023-08-03T10:04:23.615Z,0.90
2023-08-03T10:05:23.535Z,0.90
2023-08-03T10:06:23.498Z,0.90
2023-08-03T10:07:23.417Z,0.80
2023-08-03T10:08:23.436Z,0.80
2023-08-03T10:09:23.317Z,0.80
2023-08-03T10:10:23.306Z,0.90
2023-08-03T10:11:23.221Z,1.10
2023-08-03T10:12:23.141Z,1.10
2023-08-03T10:13:23.077Z,0.80
2023-08-03T10:14:23.011Z,0.80
2023-08-03T10:15:22.971Z,0.80
2023-08-03T10:16:22.953Z,1.00
2023-08-03T10:17:22.853Z,1.00
2023-08-03T10:18:38.268Z,1.10
2023-08-03T10:19:22.807Z,0.70
2023-08-03T10:20:22.689Z,0.80
2023-08-03T10:21:22.638Z,0.80
2023-08-03T10:22:22.551Z,0.70
2023-08-03T10:23:22.529Z,0.80
2023-08-03T10:24:22.510Z,0.80
2023-08-03T10:25:22.388Z,1.00
2023-08-03T10:26:22.336Z,0.80
2023-08-03T10:27:25.157Z,0.80
2023-08-03T10:28:22.206Z,0.80
2023-08-03T10:29:22.143Z,1.00
2023-08-03T10:30:22.123Z,0.90
2023-08-03T10:31:22.961Z,0.80
2023-08-03T10:32:21.959Z,0.80
2023-08-03T10:33:21.948Z,0.80
2023-08-03T10:34:21.869Z,0.80
2023-08-03T10:35:21.815Z,0.80
2023-08-03T10:36:21.737Z,0.90
2023-08-03T10:37:21.759Z,0.90
2023-08-03T10:38:21.624Z,0.90
2023-08-03T10:39:21.642Z,1.00
2023-08-03T10:40:21.488Z,1.00
2023-08-03T10:41:21.452Z,1.00
2023-08-03T10:42:21.483Z,0.90
2023-08-03T10:43:21.334Z,0.80
2023-08-03T10:44:21.286Z,1.00
2023-08-03T10:45:21.234Z,0.80
2023-08-03T10:46:21.290Z,0.80
2023-08-03T10:47:23.313Z,0.90
2023-08-03T10:48:21.113Z,0.90
2023-08-03T10:49:21.164Z,1.00
2023-08-03T10:50:20.934Z,0.80
2023-08-03T10:51:20.887Z,0.80
2023-08-03T10:52:20.884Z,0.80
2023-08-03T10:53:20.749Z,0.80
2023-08-03T10:54:20.703Z,0.90
2023-08-03T10:55:20.641Z,0.90
2023-08-03T10:56:20.560Z,1.00
2023-08-03T10:57:20.517Z,1.00
2023-08-03T10:58:20.498Z,0.80
2023-08-03T10:59:20.755Z,0.80
2023-08-03T11:00:20.363Z,0.70
2023-08-03T11:01:20.360Z,0.80
2023-08-03T11:02:20.335Z,0.80
2023-08-03T11:03:20.230Z,0.80
2023-08-03T11:04:20.244Z,0.90
2023-08-03T11:05:20.062Z,0.80
2023-08-03T11:06:20.010Z,0.80
2023-08-03T11:07:19.955Z,0.90
2023-08-03T11:08:19.896Z,0.70
2023-08-03T11:09:19.829Z,0.90
2023-08-03T11:10:19.768Z,0.80
2023-08-03T11:11:19.728Z,0.90
2023-08-03T11:12:19.705Z,0.90
2023-08-03T11:13:19.607Z,0.80
2023-08-03T11:14:19.551Z,1.00
2023-08-03T11:15:19.504Z,0.90
2023-08-03T11:16:19.533Z,0.80
2023-08-03T11:17:19.465Z,1.10
2023-08-03T11:18:19.322Z,0.90
2023-08-03T11:19:19.277Z,1.10
2023-08-03T11:20:19.203Z,1.00
2023-08-03T11:21:19.172Z,0.90
2023-08-03T11:22:19.113Z,1.10
2023-08-03T11:23:19.032Z,1.00
2023-08-03T11:24:19.038Z,1.00
2023-08-03T11:25:18.912Z,1.00
2023-08-03T11:26:18.856Z,0.90
2023-08-03T11:27:18.811Z,0.90
2023-08-03T11:28:18.744Z,0.90
2023-08-03T11:29:18.708Z,0.90
2023-08-03T11:30:18.645Z,0.90
2023-08-03T11:31:18.608Z,0.80
2023-08-03T11:32:19.076Z,0.80
2023-08-03T11:33:18.460Z,0.90
2023-08-03T11:34:18.440Z,1.10
2023-08-03T11:35:18.410Z,1.00
2023-08-03T11:36:18.306Z,1.00
2023-08-03T11:37:18.246Z,0.80
2023-08-03T11:38:18.164Z,0.90
2023-08-03T11:39:18.124Z,0.90
2023-08-03T11:40:18.053Z,0.90
2023-08-03T11:41:25.006Z,1.00
2023-08-03T11:42:17.940Z,0.90
2023-08-03T11:43:17.913Z,1.10
2023-08-03T11:44:17.843Z,0.90
2023-08-03T11:45:17.790Z,0.90
2023-08-03T11:46:17.719Z,0.80
2023-08-03T11:47:17.706Z,0.90
2023-08-03T11:48:17.619Z,0.90
2023-08-03T11:49:17.557Z,1.00
2023-08-03T11:50:17.542Z,1.40
2023-08-03T11:51:17.455Z,1.00
2023-08-03T11:52:17.395Z,0.90
2023-08-03T11:53:19.497Z,0.80
2023-08-03T11:54:17.277Z,0.90
2023-08-03T11:55:17.216Z,0.80
2023-08-03T11:56:18.020Z,0.90
2023-08-03T11:57:17.118Z,0.90
2023-08-03T11:58:17.078Z,0.80
2023-08-03T11:59:17.006Z,0.80
2023-08-03T12:00:16.944Z,1.00
2023-08-03T12:01:16.961Z,0.80
2023-08-03T12:02:16.909Z,1.00
2023-08-03T12:03:16.819Z,1.00
2023-08-03T12:04:16.861Z,1.00
2023-08-03T12:05:18.573Z,1.00
2023-08-03T12:08:16.570Z,1.50
2023-08-03T12:09:17.207Z,1.50
2023-08-03T12:10:17.865Z,1.10
2023-08-03T12:11:16.481Z,1.30
2023-08-03T12:12:16.296Z,1.10
2023-08-03T12:13:16.223Z,1.60
2023-08-03T12:14:16.152Z,1.50
2023-08-03T12:15:16.084Z,1.60
2023-08-03T12:16:16.057Z,1.20
2023-08-03T12:17:15.977Z,1.50
2023-08-03T12:18:15.940Z,1.70
2023-08-03T12:19:15.877Z,1.10
2023-08-03T12:20:15.794Z,0.90
2023-08-03T12:21:15.754Z,1.30
2023-08-03T12:22:15.721Z,0.90
2023-08-03T12:23:15.619Z,1.00
2023-08-03T12:24:15.569Z,0.90
2023-08-03T12:25:15.513Z,1.00
2023-08-03T12:26:15.466Z,1.00
2023-08-03T12:28:15.361Z,1.00
2023-08-03T12:29:15.294Z,1.00
2023-08-03T12:30:15.296Z,0.90
2023-08-03T12:31:15.207Z,0.80
2023-08-03T12:32:15.088Z,0.90
2023-08-03T12:33:15.059Z,1.00
2023-08-03T12:34:14.996Z,0.90
2023-08-03T12:35:14.924Z,1.10
2023-08-03T12:36:14.861Z,1.10
2023-08-03T12:37:16.764Z,1.00
2023-08-03T12:38:14.779Z,1.00
2023-08-03T12:39:14.723Z,1.10
2023-08-03T12:40:14.658Z,1.20
2023-08-03T12:41:14.564Z,0.80
2023-08-03T12:42:14.768Z,0.90
2023-08-03T12:43:16.215Z,0.80
2023-08-03T12:44:14.407Z,0.90
2023-08-03T12:45:14.335Z,0.80
2023-08-03T12:46:14.473Z,0.80
2023-08-03T12:47:14.267Z,1.00
2023-08-03T12:48:17.840Z,0.90
2023-08-03T12:49:14.122Z,1.10
2023-08-03T12:50:14.140Z,1.30
2023-08-03T12:51:13.991Z,1.10
2023-08-03T12:52:13.917Z,1.10
2023-08-03T12:53:13.949Z,1.00
2023-08-03T12:54:13.848Z,1.00
2023-08-03T12:55:13.824Z,0.80
2023-08-03T12:56:13.741Z,0.80
2023-08-03T12:57:13.670Z,0.90
2023-08-03T12:58:13.585Z,0.90
2023-08-03T12:59:13.586Z,0.80
2023-08-03T13:00:13.495Z,0.90
2023-08-03T13:01:13.429Z,0.80
2023-08-03T13:02:13.371Z,0.90
2023-08-03T13:03:13.348Z,0.90
2023-08-03T13:04:13.286Z,0.90
2023-08-03T13:05:13.244Z,0.90
2023-08-03T13:06:13.155Z,0.80
2023-08-03T13:07:13.037Z,0.70
2023-08-03T13:08:13.057Z,0.80
2023-08-03T13:09:12.957Z,0.90
2023-08-03T13:10:12.871Z,0.90
2023-08-03T13:11:13.925Z,0.80
2023-08-03T13:12:12.773Z,0.90
2023-08-03T13:13:12.702Z,0.80
2023-08-03T13:14:14.113Z,0.80
2023-08-03T13:15:12.608Z,0.70
2023-08-03T13:16:12.584Z,0.90
2023-08-03T13:17:12.539Z,0.90
2023-08-03T13:18:12.550Z,1.00
2023-08-03T13:19:12.340Z,1.00
2023-08-03T13:20:12.385Z,0.90
2023-08-03T13:21:12.254Z,1.20
2023-08-03T13:22:12.195Z,3.30
2023-08-03T13:23:12.178Z,2.30
2023-08-03T13:24:12.093Z,1.10
2023-08-03T13:25:12.037Z,3.40
2023-08-03T13:26:12.042Z,1.00
2023-08-03T13:27:11.898Z,1.00
2023-08-03T13:28:11.837Z,1.00
2023-08-03T13:29:11.837Z,0.80
2023-08-03T13:30:11.725Z,0.90
2023-08-03T13:31:11.695Z,0.90
2023-08-03T13:32:11.667Z,0.80
2023-08-03T13:33:11.567Z,0.90
2023-08-03T13:34:11.478Z,0.90
2023-08-03T13:35:11.466Z,0.90
2023-08-03T13:36:11.378Z,0.80
2023-08-03T13:37:11.310Z,0.80
2023-08-03T13:38:11.306Z,0.80
2023-08-03T13:39:11.194Z,0.90
2023-08-03T13:40:11.123Z,0.90
2023-08-03T13:41:11.134Z,1.00
2023-08-03T13:42:11.012Z,1.10
2023-08-03T13:43:10.949Z,1.10
2023-08-03T13:44:10.914Z,1.10
2023-08-03T13:45:10.916Z,0.90
2023-08-03T13:46:10.819Z,1.20